Aviation Digital Data Service (ADDS)

Output produced by TAFs form (0213 UTC 02 August 2015)
found at http://aviationweather.gov/adds/tafs/
 
KPUB 020023Z 0200/0224 15010KT P6SM VCTS FEW030 BKN080CB 
     TEMPO 0200/0203 VRB20G30KT 4SM TSRA BKN040CB 
     FM020300 28008KT P6SM SCT070 BKN120 
     FM020700 VRB05KT P6SM SCT150